Latest Weather Forecast - Sunday 13th September 2020 (6 pm)

Forecast Period: 

6 pm  13th September 2020 to 6 am 14th September 2020 

Synopsis:

Unstable conditions are affecting the islands

Forecast:

Partly cloudy to cloudy with pockets of moderate to heavy showers and isolated thunderstorms mainly after midnight

Weather Advisory:

 A flash-flood watch remains in effect. Residents in area prone to flooding and landslides or near river and streams should be alert.   

Winds:

 ESE – SE at 10 – 25 km/h (6 – 16 mph)

Sea Conditions:  Slight to moderate in open water; with swells from (0.5 – 1.5 m)

Marine   Advisory/Warning:

 None
Upcoming Tides:
 High: 2:34 am   02:18 pm
 Low:

09:45 pm(13th)

07:23 am

Aviation WX

[Source: ADDS]
METAR
TVSA 260500Z 2606/2706 07008KT 9999 SCT016 PROB40 TEMPO 2611/2616 SHRA BKN015 FEW016CB TAF
TVSA 260500Z 2606/2706 07008KT 9999 SCT016 PROB40 TEMPO 2611/2616 SHRA BKN015 FEW016CB =
SR / SS: 09:53 / 21:57 UTC (Sunrise Sunset 2020-09-26)